Ella North Airport

IR-0014 · Khuzestan, 伊朗

使用的METAR站距离机场66 km。
罗盘
风向 的 风向 320°
风: 4 kt, 2 beaufort

添加一条跑道以查看侧风和逆风信息。

添置 跑道
0 ft 1.000 2.000 3.000 4.000 5.000
Cloud Cloud
FEW 3.500
METAR OIAW 241500Z 32004KT 9999 FEW035 34/10 Q1002

METAR Ella North Airport - IR-0014

Ella North Airport是,伊朗中的小机场。 该机场位于纬度31,92181和经度48,87752。 这个机场没有ICAO代码,我们使用IR-0014作为参考。 机场在Tehran FIR中。

该航空气象观测是针对Lieutenant General Qasem Soleimani International Airport在2024年4月24日 18:30, 当地时间进行的。

机场观察

风向为320°,速度为4 kt。

可见度为10 km 或者更多。

有几云在3.500 ft的高度。 没有观察到天花板。

温度和风寒是34 °C。 露点为10 °C,相对湿度为23%。 海平面上的气压为1002 hPa (QNH)。

白天

今天,太阳从05:35升起,在18:49降落。 这适用于Ella North Airport,世界夏令时可能有所不同。 当地时间与世界标准时间之间的时差为+3 小时 30 分钟。 夏令时目前正在进行中。

公司介绍

我们没有关于这个机场的公司信息。

体会

到Vliegles.nl去找飞行课程,跳伞和其他飞行体验。 浏览页面,了解Ella North Airport附近所有可用的活动。 你也可以使用搜索功能来寻找你所在地附近的特定飞行课程、跳伞或其他飞行体验。

乌云

3.500 ft FEW 几云

温度 & 天气

温度 34 °C
露点 10 °C
相对湿度 23%
Kp-index 0 (0-9)

白天

日出
05:36 (10:00)
中午
12:13
日落
18:49

小工具

你想在你的网站上有一个关于Ella North Airport的当前航空天气(METAR)的小部件吗?

显示HTML代码
报告变更